Time;durP1;ratioP1;P1;durP2;ratioP2;P2;SDS_P1;SDS_P2;PMS_P1;PMS_P2;Temp;Humidity;BMP_temperature;BMP_pressure;BME280_temperature;BME280_humidity;BME280_pressure;Samples;Min_cycle;Max_cycle;Signal;HPM_P1;HPM_P2
2021/05/06 00:33:54;;;;;;;5.73;0.77;;;;;;;4.28;66.10;99579.69;5053168;28;20258;-78
2021/05/06 00:36:20;;;;;;;0.10;0.10;;;;;;;4.27;66.06;99584.28;5052009;28;20194;-79
2021/05/06 00:38:52;;;;;;;0.00;0.00;;;;;;;4.18;66.91;99586.81;5053267;28;20262;-77
2021/05/06 00:54:26;;;;;;;0.33;0.20;;;;;;;4.09;67.63;99588.59;5052143;28;20325;-77
2021/05/06 01:09:52;;;;;;;1.07;0.97;;;;;;;3.94;68.59;99599.59;5051165;28;20204;-76
2021/05/06 01:12:17;;;;;;;0.00;0.00;;;;;;;3.89;69.03;99597.72;5051172;28;20206;-77
2021/05/06 01:41:50;;;;;;;0.10;0.10;;;;;;;3.71;70.25;99595.78;5050832;28;20233;-79
2021/05/06 01:44:54;;;;;;;1.47;0.30;;;;;;;3.74;70.51;99597.09;5050692;28;20159;-77
2021/05/06 01:47:39;;;;;;;0.00;0.00;;;;;;;3.67;70.78;99599.34;5041588;28;20178;-77
2021/05/06 01:58:14;;;;;;;11.33;0.30;;;;;;;3.78;69.91;99592.75;5030732;28;20167;-77
2021/05/06 02:00:44;;;;;;;1.43;0.80;;;;;;;3.77;70.30;99593.84;5030573;28;20172;-77
2021/05/06 02:03:09;;;;;;;0.00;0.00;;;;;;;3.71;70.65;99590.38;5030293;28;20568;-79
2021/05/06 02:05:34;;;;;;;2.80;1.80;;;;;;;3.70;70.93;99590.66;5030184;28;20229;-78
2021/05/06 02:08:01;;;;;;;1.07;1.07;;;;;;;3.64;70.99;99600.72;5030694;28;20173;-78
2021/05/06 02:10:27;;;;;;;0.30;0.30;;;;;;;3.69;70.83;99591.75;5030498;28;20227;-80
2021/05/06 02:12:53;;;;;;;1.27;1.17;;;;;;;3.65;71.75;99588.03;5030522;28;20204;-78
2021/05/06 02:18:17;;;;;;;2.53;0.97;;;;;;;3.57;72.32;99592.94;5018166;28;20353;-80
2021/05/06 02:20:43;;;;;;;0.57;0.43;;;;;;;3.54;72.22;99581.91;5030973;28;20675;-77
2021/05/06 02:23:08;;;;;;;0.27;0.27;;;;;;;3.56;71.94;99582.44;5030488;28;20635;-78
2021/05/06 02:25:34;;;;;;;5.63;0.93;;;;;;;3.56;71.89;99575.13;5030361;28;20176;-78
2021/05/06 02:28:00;;;;;;;1.30;0.63;;;;;;;3.57;72.47;99570.53;5030458;28;20250;-78
2021/05/06 02:30:25;;;;;;;1.40;0.70;;;;;;;3.56;72.26;99574.34;5030283;28;20249;-77
2021/05/06 02:32:51;;;;;;;1.40;1.10;;;;;;;3.58;72.48;99581.06;5030385;28;20187;-77
2021/05/06 02:35:16;;;;;;;0.40;0.33;;;;;;;3.61;72.67;99578.88;5030335;28;20183;-77
2021/05/06 02:37:43;;;;;;;1.23;0.80;;;;;;;3.64;73.38;99576.41;5030194;28;20176;-78
2021/05/06 02:40:09;;;;;;;0.50;0.50;;;;;;;3.70;72.50;99577.16;5029584;28;20194;-77
2021/05/06 02:42:35;;;;;;;0.67;0.67;;;;;;;3.54;73.44;99571.13;5029934;28;20175;-79
2021/05/06 02:45:02;;;;;;;0.80;0.80;;;;;;;3.70;73.91;99569.84;5030370;28;20222;-77
2021/05/06 02:47:28;;;;;;;2.30;1.17;;;;;;;3.70;73.23;99572.56;5030425;28;20176;-77
2021/05/06 02:49:53;;;;;;;0.97;0.87;;;;;;;3.72;73.78;99564.97;5030533;28;20227;-79
2021/05/06 02:55:00;;;;;;;0.80;0.80;;;;;;;3.90;72.38;99558.00;5030622;28;20172;-77
2021/05/06 03:02:55;;;;;;;0.60;0.60;;;;;;;3.85;73.42;99549.97;5033802;28;20246;-78
2021/05/06 03:05:25;;;;;;;0.67;0.27;;;;;;;3.80;73.59;99537.34;5033716;28;20187;-79
2021/05/06 03:08:05;;;;;;;0.43;0.43;;;;;;;3.78;73.12;99541.41;5034064;28;20279;-78
2021/05/06 03:23:58;;;;;;;1.73;0.80;;;;;;;3.84;73.87;99532.94;5033282;28;20206;-79
2021/05/06 03:26:24;;;;;;;8.10;0.93;;;;;;;3.88;73.78;99547.47;5033182;28;20619;-79
2021/05/06 03:28:57;;;;;;;0.77;0.30;;;;;;;3.88;74.11;99541.28;5033121;28;20195;-79
2021/05/06 03:42:21;;;;;;;0.30;0.30;;;;;;;3.88;74.29;99525.06;5053154;28;20225;-78
2021/05/06 04:11:49;;;;;;;0.83;0.83;;;;;;;3.91;76.36;99527.22;5052730;28;20845;-79
2021/05/06 04:14:47;;;;;;;0.67;0.63;;;;;;;3.96;76.96;99516.31;5052355;28;20170;-77
2021/05/06 04:35:50;;;;;;;1.27;1.17;;;;;;;4.10;77.91;99517.22;5052143;28;20542;-79
2021/05/06 04:38:18;;;;;;;1.77;1.43;;;;;;;4.12;77.76;99522.31;5051567;28;20167;-79
2021/05/06 04:41:04;;;;;;;0.33;0.33;;;;;;;4.18;77.43;99521.94;5051643;28;20233;-79
2021/05/06 04:54:26;;;;;;;1.93;1.83;;;;;;;4.32;78.03;99532.84;5051636;28;20768;-77
2021/05/06 05:04:58;;;;;;;1.97;1.87;;;;;;;4.28;79.60;99529.13;5051119;28;20198;-78
2021/05/06 05:15:02;;;;;;;2.47;2.27;;;;;;;4.23;82.52;99536.50;5051634;28;20511;-77
2021/05/06 05:25:30;;;;;;;8.53;3.63;;;;;;;3.89;87.68;99551.00;5031795;28;20234;-81
2021/05/06 05:27:57;;;;;;;2.30;2.10;;;;;;;3.84;88.19;99549.16;5029864;28;20172;-79
2021/05/06 05:30:27;;;;;;;2.77;2.57;;;;;;;3.78;88.53;99544.13;5031597;28;20619;-78
2021/05/06 05:32:53;;;;;;;2.40;2.20;;;;;;;3.76;89.66;99546.28;5031303;28;20326;-81
2021/05/06 05:35:32;;;;;;;0.67;0.67;;;;;;;3.69;89.64;99554.75;5031004;28;20211;-78
2021/05/06 05:38:08;;;;;;;1.07;1.07;;;;;;;3.53;90.03;99551.41;5031367;28;20550;-78
2021/05/06 05:40:39;;;;;;;1.90;1.80;;;;;;;3.47;90.38;99544.47;5031156;28;20697;-80
2021/05/06 05:43:38;;;;;;;7.40;2.37;;;;;;;3.40;90.52;99549.38;5031054;28;20196;-78
2021/05/06 05:46:39;;;;;;;2.47;2.37;;;;;;;3.36;91.30;99558.34;5031155;28;20175;-80
2021/05/06 05:56:42;;;;;;;17.07;2.10;;;;;;;3.17;92.78;99561.75;5031006;28;20187;-80
2021/05/06 05:59:08;;;;;;;1.90;1.80;;;;;;;3.16;93.09;99568.22;5029763;28;20623;-81
2021/05/06 06:01:33;;;;;;;3.27;3.07;;;;;;;3.16;93.09;99562.84;5030962;28;20198;-80
2021/05/06 06:03:59;;;;;;;4.47;4.13;;;;;;;3.17;93.24;99561.75;5029741;28;20183;-82
2021/05/06 06:06:25;;;;;;;4.17;3.57;;;;;;;3.21;93.19;99567.41;5030991;28;20765;-79
2021/05/06 06:08:50;;;;;;;6.47;4.13;;;;;;;3.19;93.30;99569.59;5031068;28;20577;-76
2021/05/06 06:11:17;;;;;;;5.03;4.57;;;;;;;3.25;93.67;99569.25;5030513;28;20266;-76
2021/05/06 06:13:45;;;;;;;4.13;3.53;;;;;;;3.31;94.14;99566.47;5030707;28;20171;-76
2021/05/06 06:16:13;;;;;;;6.60;3.67;;;;;;;3.31;93.35;99570.00;5030790;28;20305;-76
2021/05/06 06:18:58;;;;;;;2.07;0.93;;;;;;;3.26;92.88;99570.03;5030815;28;20658;-76
2021/05/06 06:23:52;;;;;;;2.33;2.13;;;;;;;3.16;93.33;99575.53;5030856;28;20176;-76
2021/05/06 06:26:18;;;;;;;1.60;1.60;;;;;;;3.19;93.71;99578.50;5031152;28;20180;-76
2021/05/06 06:28:46;;;;;;;4.60;3.60;;;;;;;3.16;94.14;99575.53;5030788;28;20687;-78
2021/05/06 06:34:06;;;;;;;3.07;2.87;;;;;;;3.22;94.72;99569.00;5023457;28;20184;-79
2021/05/06 06:36:33;;;;;;;4.73;4.07;;;;;;;3.26;94.86;99570.03;5034356;28;20198;-79
2021/05/06 06:38:58;;;;;;;4.80;4.13;;;;;;;3.27;94.96;99572.47;5034502;28;20176;-76
2021/05/06 06:41:24;;;;;;;4.03;3.73;;;;;;;3.26;94.76;99575.44;5035447;28;20164;-78
2021/05/06 06:43:52;;;;;;;2.53;2.33;;;;;;;3.19;94.10;99574.97;5035325;28;20636;-76
2021/05/06 06:46:17;;;;;;;1.07;1.07;;;;;;;3.13;93.71;99573.41;5033687;28;20542;-80
2021/05/06 06:48:44;;;;;;;3.43;3.23;;;;;;;3.09;94.20;99570.47;5034809;28;20200;-78
2021/05/06 06:51:10;;;;;;;2.97;2.60;;;;;;;3.13;94.50;99576.09;5035149;28;20187;-78
2021/05/06 06:53:35;;;;;;;9.40;2.90;;;;;;;3.18;94.85;99576.03;5035671;28;20172;-76
2021/05/06 06:56:01;;;;;;;4.20;3.83;;;;;;;3.25;95.25;99577.34;5036366;28;20648;-79
2021/05/06 06:58:26;;;;;;;5.23;3.20;;;;;;;3.31;95.20;99571.88;5035561;28;20260;-79
2021/05/06 07:00:52;;;;;;;4.40;4.07;;;;;;;3.35;95.15;99581.03;5050809;28;20193;-79
2021/05/06 07:03:17;;;;;;;3.27;2.97;;;;;;;3.36;94.91;99578.06;5059416;28;20171;-79
2021/05/06 07:05:43;;;;;;;2.77;2.57;;;;;;;3.38;95.02;99578.56;5059374;28;20182;-79
2021/05/06 07:08:14;;;;;;;2.50;2.40;;;;;;;3.33;94.80;99578.63;5059130;28;20493;-79
2021/05/06 07:10:41;;;;;;;4.53;4.13;;;;;;;3.33;94.58;99577.78;5059177;28;20205;-79
2021/05/06 07:13:07;;;;;;;4.33;3.17;;;;;;;3.35;95.00;99581.84;5056636;28;20175;-80
2021/05/06 07:15:32;;;;;;;4.40;4.10;;;;;;;3.39;95.38;99582.88;5055286;28;20180;-74
2021/05/06 07:17:58;;;;;;;3.27;2.80;;;;;;;3.39;95.22;99577.47;5054791;28;20198;-78
2021/05/06 07:20:24;;;;;;;4.70;3.10;;;;;;;3.45;95.67;99578.22;5057438;28;20179;-80
2021/05/06 07:22:49;;;;;;;6.53;4.90;;;;;;;3.51;95.63;99580.59;5054950;28;20632;-79
2021/05/06 07:25:15;;;;;;;3.67;3.37;;;;;;;3.62;95.27;99583.19;5053909;28;20259;-79
2021/05/06 07:27:40;;;;;;;8.67;5.00;;;;;;;3.68;95.18;99573.94;5053475;28;20187;-79
2021/05/06 07:30:07;;;;;;;4.43;4.10;;;;;;;3.71;95.23;99582.28;5053395;28;20203;-79
2021/05/06 07:32:32;;;;;;;8.30;4.97;;;;;;;3.75;95.32;99585.19;5053272;28;20179;-79
2021/05/06 07:34:58;;;;;;;4.33;3.93;;;;;;;3.85;95.36;99593.19;5053556;28;20171;-80
2021/05/06 07:37:23;;;;;;;6.57;5.13;;;;;;;3.92;95.10;99585.56;5052910;28;20202;-78
2021/05/06 07:39:48;;;;;;;4.47;4.07;;;;;;;3.85;94.65;99585.09;5052760;28;20194;-79
2021/05/06 07:42:14;;;;;;;3.70;3.40;;;;;;;3.79;93.85;99586.25;5052759;28;20167;-79
2021/05/06 07:44:39;;;;;;;4.43;4.10;;;;;;;3.72;93.41;99589.28;5052936;28;20233;-78
2021/05/06 07:47:11;;;;;;;4.40;4.00;;;;;;;3.80;94.22;99585.97;5053576;28;20171;-78
2021/05/06 07:49:37;;;;;;;5.07;4.67;;;;;;;3.93;94.40;99589.06;5053906;28;20217;-79
2021/05/06 07:52:04;;;;;;;6.77;5.77;;;;;;;4.06;94.78;99588.38;5052942;28;20183;-77
2021/05/06 07:54:30;;;;;;;3.73;3.43;;;;;;;4.19;94.68;99582.22;5052894;28;20175;-78
2021/05/06 07:56:55;;;;;;;4.87;4.47;;;;;;;4.40;94.90;99588.19;5052887;28;20245;-76
2021/05/06 07:59:21;;;;;;;4.83;4.37;;;;;;;4.40;94.38;99585.47;5052693;28;20666;-78
2021/05/06 08:01:46;;;;;;;5.50;5.07;;;;;;;4.38;93.46;99585.78;5052445;28;20340;-78
2021/05/06 08:04:13;;;;;;;4.30;3.90;;;;;;;4.56;94.54;99586.88;5052583;28;20195;-79
2021/05/06 08:06:38;;;;;;;5.37;4.90;;;;;;;4.64;94.71;99583.53;5052409;28;20634;-77
2021/05/06 08:09:04;;;;;;;4.00;3.70;;;;;;;4.71;94.61;99583.94;5052830;28;20206;-78
2021/05/06 08:11:30;;;;;;;2.17;2.03;;;;;;;4.75;94.43;99584.16;5041602;28;20194;-79
2021/05/06 08:13:55;;;;;;;0.87;0.87;;;;;;;4.63;92.85;99579.22;5032420;28;20207;-76
2021/05/06 08:16:21;;;;;;;1.53;1.43;;;;;;;4.53;93.07;99576.63;5032332;28;20534;-78
2021/05/06 08:18:46;;;;;;;1.43;1.33;;;;;;;4.57;93.02;99582.25;5032428;28;20176;-78
2021/05/06 08:21:11;;;;;;;2.33;2.13;;;;;;;4.48;92.24;99576.69;5032716;28;20215;-78
2021/05/06 08:23:37;;;;;;;4.17;3.47;;;;;;;4.58;93.22;99583.88;5032220;28;20230;-79
2021/05/06 08:26:02;;;;;;;3.40;3.10;;;;;;;4.77;93.73;99588.19;5032558;28;20230;-79
2021/05/06 08:28:29;;;;;;;0.80;0.80;;;;;;;4.89;93.22;99589.63;5032223;28;20533;-82
2021/05/06 08:30:54;;;;;;;10.33;5.23;;;;;;;4.98;93.11;99587.88;5033390;28;20222;-82
2021/05/06 08:33:20;;;;;;;4.33;3.97;;;;;;;5.30;94.47;99589.75;5032147;28;20631;-83
2021/05/06 08:35:45;;;;;;;2.07;1.97;;;;;;;5.50;93.75;99594.03;5032233;28;20178;-78
2021/05/06 08:38:11;;;;;;;1.63;1.53;;;;;;;5.51;90.93;99595.63;5032224;28;20176;-77
2021/05/06 08:40:37;;;;;;;0.57;0.57;;;;;;;5.34;89.86;99593.47;5031700;28;20259;-82
2021/05/06 08:43:07;;;;;;;3.97;3.13;;;;;;;5.38;91.20;99595.31;5031901;28;20717;-82
2021/05/06 08:45:35;;;;;;;0.53;0.53;;;;;;;5.44;90.32;99596.00;5030737;28;20182;-84
2021/05/06 08:48:02;;;;;;;2.87;2.67;;;;;;;5.38;89.58;99602.63;5032043;28;20636;-83
2021/05/06 08:50:28;;;;;;;1.43;1.33;;;;;;;5.47;89.24;99589.19;5031770;28;20206;-82
2021/05/06 08:52:55;;;;;;;1.00;0.77;;;;;;;5.42;87.85;99602.84;5031763;28;20255;-83
2021/05/06 08:55:21;;;;;;;2.53;2.33;;;;;;;5.35;87.53;99601.31;5031832;28;20201;-80
2021/05/06 08:57:46;;;;;;;0.60;0.30;;;;;;;5.32;87.67;99596.47;5031376;28;20635;-81
2021/05/06 09:00:12;;;;;;;0.83;0.83;;;;;;;5.19;86.96;99589.13;5032118;28;20180;-81
2021/05/06 09:02:48;;;;;;;1.53;1.20;;;;;;;5.10;86.74;99600.94;5031719;28;20173;-80
2021/05/06 09:05:14;;;;;;;1.13;0.97;;;;;;;5.22;87.88;99607.50;5031937;28;20191;-81
2021/05/06 09:07:46;;;;;;;0.83;0.83;;;;;;;5.19;87.42;99602.66;5031925;28;20537;-77
2021/05/06 09:10:32;;;;;;;1.50;1.40;;;;;;;5.29;87.64;99616.03;5031844;28;20199;-80
2021/05/06 09:12:58;;;;;;;2.50;2.37;;;;;;;5.61;89.36;99612.50;5031385;28;20180;-81
2021/05/06 09:15:23;;;;;;;3.00;2.80;;;;;;;5.84;86.28;99610.72;5029777;28;20183;-82
2021/05/06 09:17:49;;;;;;;1.13;1.13;;;;;;;6.02;83.00;99619.09;5031359;28;20564;-79
2021/05/06 09:20:24;;;;;;;1.57;1.47;;;;;;;6.23;84.10;99614.88;5030978;28;20554;-80
2021/05/06 09:22:55;;;;;;;0.40;0.40;;;;;;;6.53;83.32;99616.13;5030726;28;20718;-76
2021/05/06 09:25:35;;;;;;;0.83;0.83;;;;;;;6.73;82.04;99615.66;5030554;28;20171;-76
2021/05/06 09:28:11;;;;;;;0.13;0.13;;;;;;;6.74;80.51;99611.03;5031927;28;20271;-76
2021/05/06 09:30:57;;;;;;;2.33;1.00;;;;;;;6.86;79.66;99614.03;5035528;28;20209;-76
2021/05/06 09:33:35;;;;;;;1.73;1.63;;;;;;;6.75;77.27;99608.03;5030489;28;20188;-80
2021/05/06 09:36:16;;;;;;;0.80;0.80;;;;;;;7.18;79.26;99607.56;5030353;28;20651;-79
2021/05/06 09:38:46;;;;;;;0.67;0.67;;;;;;;7.22;74.28;99618.59;5031488;28;20509;-78
2021/05/06 09:41:13;;;;;;;0.57;0.47;;;;;;;7.34;74.59;99613.41;5030583;28;20697;-80
2021/05/06 09:43:41;;;;;;;1.23;1.23;;;;;;;7.34;75.76;99610.69;5030648;28;20233;-81
2021/05/06 09:46:32;;;;;;;1.27;1.23;;;;;;;7.22;72.41;99610.44;5029372;28;20176;-80
2021/05/06 09:49:06;;;;;;;0.93;0.93;;;;;;;6.96;74.41;99613.81;5031180;28;20290;-81
2021/05/06 09:51:50;;;;;;;1.70;1.60;;;;;;;6.85;72.49;99613.22;5030677;28;20171;-80
2021/05/06 09:54:29;;;;;;;0.60;0.60;;;;;;;6.84;74.30;99617.06;5031141;28;20620;-81
2021/05/06 09:57:06;;;;;;;2.20;2.03;;;;;;;6.88;73.48;99611.00;5031106;28;20204;-82
2021/05/06 09:59:37;;;;;;;1.77;1.67;;;;;;;7.13;73.26;99613.91;5030883;28;20167;-81
2021/05/06 10:02:11;;;;;;;0.73;0.50;;;;;;;7.37;70.45;99610.88;5030618;28;20251;-82
2021/05/06 10:04:40;;;;;;;0.37;0.37;;;;;;;7.42;69.83;99601.81;5030357;28;20274;-82
2021/05/06 10:07:16;;;;;;;0.97;0.87;;;;;;;7.60;69.64;99608.13;5031164;28;20176;-82
2021/05/06 10:10:02;;;;;;;1.30;1.30;;;;;;;7.81;67.79;99608.38;5034613;28;20202;-82
2021/05/06 10:12:51;;;;;;;1.63;1.53;;;;;;;8.00;70.80;99603.50;5034507;28;20229;-81
2021/05/06 10:15:18;;;;;;;2.17;1.93;;;;;;;8.08;68.17;99602.72;5034600;28;20184;-80
2021/05/06 10:17:45;;;;;;;0.33;0.33;;;;;;;8.16;67.24;99593.78;5035145;28;20168;-81
2021/05/06 10:20:12;;;;;;;1.60;1.50;;;;;;;8.04;66.83;99604.47;5034486;28;20198;-81
2021/05/06 10:22:39;;;;;;;2.47;1.77;;;;;;;8.28;66.22;99604.06;5033261;28;20246;-81
2021/05/06 10:25:10;;;;;;;0.80;0.80;;;;;;;8.33;65.59;99595.75;5034639;28;20180;-80
2021/05/06 10:27:39;;;;;;;0.77;0.77;;;;;;;8.31;65.60;99598.78;5034347;28;20255;-77
2021/05/06 10:30:06;;;;;;;0.33;0.33;;;;;;;8.25;66.03;99597.34;5034111;28;20239;-82
2021/05/06 10:32:33;;;;;;;0.50;0.50;;;;;;;8.13;63.45;99597.16;5034236;28;20171;-81
2021/05/06 10:35:03;;;;;;;1.60;1.50;;;;;;;8.22;65.34;99592.53;5034327;28;20199;-81
2021/05/06 10:37:41;;;;;;;1.40;1.30;;;;;;;8.05;63.98;99589.75;5034595;28;20242;-82
2021/05/06 10:40:21;;;;;;;0.83;0.83;;;;;;;7.88;63.72;99595.13;5038084;28;20184;-82
2021/05/06 10:42:48;;;;;;;1.60;1.07;;;;;;;7.80;66.16;99590.47;5032639;28;20180;-80
2021/05/06 10:45:13;;;;;;;0.80;0.80;;;;;;;7.63;65.85;99594.72;5034085;28;20200;-79
2021/05/06 10:47:41;;;;;;;0.63;0.63;;;;;;;7.59;66.47;99592.94;5052769;28;20272;-78
2021/05/06 10:50:07;;;;;;;2.67;1.60;;;;;;;7.56;67.11;99585.41;5053964;28;20207;-79
2021/05/06 10:52:41;;;;;;;1.37;1.27;;;;;;;7.77;66.66;99583.72;5053571;28;20179;-78
2021/05/06 10:55:10;;;;;;;1.60;1.50;;;;;;;8.03;66.75;99581.91;5053558;28;20588;-77
2021/05/06 10:57:40;;;;;;;5.17;1.97;;;;;;;8.56;65.66;99578.22;5042501;28;20192;-78
2021/05/06 11:00:20;;;;;;;5.27;1.10;;;;;;;8.85;64.67;99580.31;5034836;28;20210;-79
2021/05/06 11:02:49;;;;;;;0.43;0.43;;;;;;;8.90;58.96;99577.41;5033311;28;20676;-78
2021/05/06 11:05:20;;;;;;;0.70;0.70;;;;;;;8.94;60.34;99569.38;5033364;28;20224;-79
2021/05/06 11:08:04;;;;;;;0.97;0.97;;;;;;;8.92;61.89;99579.81;5033545;28;20168;-79
2021/05/06 11:10:46;;;;;;;1.10;1.10;;;;;;;9.03;57.70;99574.84;5033366;28;20206;-79
2021/05/06 11:13:11;;;;;;;1.13;1.03;;;;;;;9.19;57.97;99562.31;5033338;28;20646;-80
2021/05/06 11:15:37;;;;;;;3.40;0.80;;;;;;;9.32;55.85;99574.94;5032385;28;20176;-78
2021/05/06 11:18:04;;;;;;;0.30;0.30;;;;;;;9.20;57.23;99558.47;5035063;28;20263;-79
2021/05/06 11:20:30;;;;;;;1.03;0.93;;;;;;;9.40;58.57;99568.69;5032246;28;20274;-77
2021/05/06 11:23:01;;;;;;;0.90;0.90;;;;;;;9.62;58.17;99566.84;5033071;28;20275;-75
2021/05/06 11:25:30;;;;;;;1.87;1.43;;;;;;;10.02;58.42;99568.13;5031845;28;20655;-75
2021/05/06 11:27:59;;;;;;;0.87;0.87;;;;;;;9.88;56.45;99562.09;5041995;28;20528;-75
2021/05/06 11:30:42;;;;;;;0.60;0.60;;;;;;;9.75;57.59;99563.13;5031803;28;20559;-75
2021/05/06 11:33:24;;;;;;;0.40;0.40;;;;;;;9.63;57.37;99549.34;5032955;28;20503;-75
2021/05/06 11:36:19;;;;;;;0.63;0.63;;;;;;;9.90;59.07;99559.03;5033269;28;20183;-75
2021/05/06 11:38:48;;;;;;;2.00;1.63;;;;;;;10.09;58.40;99549.28;5031908;28;20249;-76
2021/05/06 11:41:17;;;;;;;0.80;0.80;;;;;;;10.02;55.25;99546.28;5033098;28;20176;-75
2021/05/06 11:43:49;;;;;;;0.57;0.57;;;;;;;9.94;54.59;99544.41;5032905;28;20187;-75
2021/05/06 11:46:23;;;;;;;0.43;0.43;;;;;;;9.56;56.92;99546.34;5032857;28;20262;-75
2021/05/06 11:48:50;;;;;;;0.50;0.47;;;;;;;9.45;56.51;99538.53;5033476;28;20536;-76
2021/05/06 11:51:31;;;;;;;6.13;1.00;;;;;;;9.63;56.63;99544.69;5032964;28;20261;-75
2021/05/06 11:54:06;;;;;;;0.57;0.57;;;;;;;9.59;57.78;99537.50;5034626;28;20183;-74
2021/05/06 11:56:33;;;;;;;1.27;1.17;;;;;;;9.37;56.71;99536.59;5033050;28;20186;-75
2021/05/06 11:58:59;;;;;;;1.37;1.10;;;;;;;9.37;56.42;99541.25;5031467;28;20238;-74
2021/05/06 12:01:26;;;;;;;0.77;0.77;;;;;;;9.38;56.77;99540.13;5031588;28;20176;-75
2021/05/06 12:03:53;;;;;;;3.30;1.07;;;;;;;9.33;57.37;99530.22;5044815;28;20183;-74
2021/05/06 12:06:37;;;;;;;1.47;1.37;;;;;;;9.73;57.17;99536.16;5052592;28;20708;-75
2021/05/06 12:09:05;;;;;;;0.63;0.63;;;;;;;9.91;56.48;99531.41;5052536;28;20330;-76
2021/05/06 12:11:41;;;;;;;1.00;0.90;;;;;;;10.04;50.96;99515.94;5052717;28;20535;-75
2021/05/06 12:14:09;;;;;;;0.90;0.90;;;;;;;10.35;54.67;99519.13;5052507;28;20179;-75
2021/05/06 12:16:36;;;;;;;0.70;0.63;;;;;;;9.95;54.23;99517.91;5051401;28;20179;-76
2021/05/06 12:19:12;;;;;;;1.00;0.90;;;;;;;9.84;52.91;99514.78;5052734;28;20183;-76
2021/05/06 12:21:52;;;;;;;1.00;1.00;;;;;;;10.24;54.98;99503.47;5052901;28;20182;-76
2021/05/06 12:24:39;;;;;;;1.60;1.07;;;;;;;10.66;51.45;99501.53;5040341;28;20192;-75
2021/05/06 12:27:37;;;;;;;1.73;1.30;;;;;;;10.82;52.25;99494.31;5032470;28;20172;-75
2021/05/06 12:30:02;;;;;;;1.50;1.40;;;;;;;10.92;51.05;99487.63;5008739;28;20215;-76
2021/05/06 12:32:31;;;;;;;1.17;1.07;;;;;;;10.62;49.96;99495.16;5030066;28;20180;-75
2021/05/06 12:34:56;;;;;;;1.30;1.20;;;;;;;10.61;49.67;99488.88;5030990;28;20172;-74
2021/05/06 12:37:31;;;;;;;0.90;0.90;;;;;;;10.23;51.12;99490.94;5030843;28;20179;-74
2021/05/06 12:39:57;;;;;;;0.73;0.73;;;;;;;10.11;49.33;99486.97;5031747;28;20207;-75
2021/05/06 12:42:33;;;;;;;0.77;0.77;;;;;;;9.94;50.67;99495.28;5035773;28;20666;-75
2021/05/06 12:44:59;;;;;;;1.47;1.13;;;;;;;9.87;49.86;99486.84;5024104;28;20176;-74
2021/05/06 12:47:29;;;;;;;0.53;0.53;;;;;;;10.05;50.47;99484.78;5032033;28;20237;-74
2021/05/06 12:50:14;;;;;;;3.07;1.27;;;;;;;10.28;51.35;99477.13;5032311;28;20541;-74
2021/05/06 12:52:42;;;;;;;0.53;0.53;;;;;;;9.92;51.81;99477.66;5032037;28;20210;-74
2021/05/06 12:55:37;;;;;;;0.60;0.60;;;;;;;9.84;52.70;99480.13;5030983;28;20262;-74
2021/05/06 12:58:13;;;;;;;0.50;0.50;;;;;;;9.79;51.95;99490.41;5031583;28;20278;-74
2021/05/06 13:00:40;;;;;;;1.90;1.57;;;;;;;9.86;53.23;99477.06;5032149;28;20624;-74
2021/05/06 13:03:07;;;;;;;0.67;0.60;;;;;;;10.23;54.11;99474.56;5031953;28;20168;-74
2021/05/06 13:05:43;;;;;;;0.20;0.20;;;;;;;10.41;46.80;99468.66;5031126;28;20270;-75
2021/05/06 13:08:09;;;;;;;0.90;0.90;;;;;;;10.52;47.42;99465.50;5032070;28;20270;-73
2021/05/06 13:10:41;;;;;;;1.40;1.27;;;;;;;10.92;45.41;99452.91;5032331;28;20302;-73
2021/05/06 13:13:08;;;;;;;0.47;0.47;;;;;;;10.87;45.61;99457.78;5031792;28;20654;-74
2021/05/06 13:15:53;;;;;;;0.27;0.27;;;;;;;10.71;46.86;99452.16;5031380;28;20242;-74
2021/05/06 13:18:20;;;;;;;1.13;0.90;;;;;;;10.71;46.09;99458.44;5030742;28;20207;-73
2021/05/06 13:20:47;;;;;;;0.60;0.60;;;;;;;10.88;45.33;99464.84;5031115;28;20262;-74
2021/05/06 13:23:23;;;;;;;0.87;0.87;;;;;;;10.95;46.61;99457.69;5031189;28;20215;-74
2021/05/06 13:25:51;;;;;;;0.43;0.43;;;;;;;10.93;44.48;99450.97;5030545;28;20651;-74
2021/05/06 13:28:28;;;;;;;0.87;0.87;;;;;;;10.79;45.07;99454.00;5030948;28;20180;-73
2021/05/06 13:31:11;;;;;;;4.30;0.80;;;;;;;10.66;45.31;99444.97;5032444;28;20195;-75
2021/05/06 13:33:38;;;;;;;0.47;0.47;;;;;;;10.90;44.61;99444.25;5032066;28;20179;-73
2021/05/06 13:36:10;;;;;;;2.40;0.80;;;;;;;11.12;46.07;99443.03;5037779;28;20182;-73
2021/05/06 13:38:55;;;;;;;0.70;0.70;;;;;;;11.27;45.42;99436.09;5033054;28;20175;-74
2021/05/06 13:41:26;;;;;;;0.80;0.80;;;;;;;11.21;44.09;99441.00;5031641;28;20184;-73
2021/05/06 13:43:53;;;;;;;0.80;0.60;;;;;;;11.02;43.99;99430.63;5029666;28;20575;-74
2021/05/06 13:46:19;;;;;;;0.90;0.90;;;;;;;10.96;44.12;99431.16;5031103;28;20207;-74
2021/05/06 13:48:44;;;;;;;0.80;0.80;;;;;;;10.87;43.81;99422.28;5030948;28;20260;-74
2021/05/06 13:51:11;;;;;;;1.30;1.20;;;;;;;11.03;45.99;99417.75;5030995;28;20186;-74
2021/05/06 13:53:38;;;;;;;0.77;0.77;;;;;;;11.18;44.31;99422.53;5043398;28;20187;-73
2021/05/06 13:56:07;;;;;;;1.20;1.10;;;;;;;11.27;46.45;99419.69;5051149;28;20176;-73
2021/05/06 13:58:33;;;;;;;1.67;1.57;;;;;;;11.41;47.60;99422.09;5049807;28;20207;-74
2021/05/06 14:01:00;;;;;;;1.70;1.13;;;;;;;11.40;47.54;99426.75;5049393;28;20229;-73
2021/05/06 14:03:26;;;;;;;1.10;1.10;;;;;;;11.25;47.06;99417.28;5050805;28;20182;-73
2021/05/06 14:05:51;;;;;;;1.10;1.10;;;;;;;10.81;47.90;99407.22;5032228;28;20254;-74
2021/05/06 14:08:18;;;;;;;1.30;1.20;;;;;;;11.14;48.49;99418.06;5030591;28;20183;-73
2021/05/06 14:10:44;;;;;;;1.43;1.33;;;;;;;11.19;46.65;99407.72;5030540;28;20208;-74
2021/05/06 14:13:09;;;;;;;1.33;1.17;;;;;;;11.63;50.56;99406.00;5031053;28;20191;-74
2021/05/06 14:15:35;;;;;;;2.20;1.83;;;;;;;11.60;46.48;99400.44;5030591;28;20624;-74
2021/05/06 14:18:01;;;;;;;1.30;1.20;;;;;;;11.80;49.14;99402.25;5030855;28;20180;-74
2021/05/06 14:20:26;;;;;;;0.50;0.50;;;;;;;11.58;45.15;99400.78;5031256;28;20188;-74
2021/05/06 14:22:52;;;;;;;1.20;1.10;;;;;;;11.70;47.16;99391.75;5030364;28;20176;-75
2021/05/06 14:25:18;;;;;;;1.10;1.10;;;;;;;11.94;47.12;99392.88;5029254;28;20184;-74
2021/05/06 14:27:43;;;;;;;1.17;1.17;;;;;;;11.49;45.74;99399.31;5030226;28;20172;-74
2021/05/06 14:30:09;;;;;;;1.50;1.40;;;;;;;11.71;50.40;99398.81;5029180;28;20381;-74
2021/05/06 14:32:35;;;;;;;1.60;1.50;;;;;;;12.04;46.81;99393.19;5030468;28;20176;-73
2021/05/06 14:35:00;;;;;;;0.67;0.67;;;;;;;11.85;46.68;99391.06;5030460;28;20644;-74
2021/05/06 14:37:26;;;;;;;2.43;1.30;;;;;;;11.29;47.19;99390.88;5031650;28;20176;-74
2021/05/06 14:39:51;;;;;;;1.23;1.13;;;;;;;11.36;47.21;99390.31;5048659;28;20233;-74
2021/05/06 14:42:17;;;;;;;1.20;1.10;;;;;;;11.37;47.09;99383.69;5050125;28;20299;-74
2021/05/06 14:44:43;;;;;;;1.23;1.20;;;;;;;11.31;47.21;99377.66;5050759;28;20642;-74
2021/05/06 14:47:09;;;;;;;1.03;1.03;;;;;;;11.12;46.52;99384.81;5050581;28;20179;-75
2021/05/06 14:49:34;;;;;;;1.60;1.50;;;;;;;10.80;48.27;99376.34;5049146;28;20214;-75
2021/05/06 14:52:00;;;;;;;1.23;1.20;;;;;;;10.77;48.04;99371.56;5050318;28;20179;-75
2021/05/06 14:54:25;;;;;;;1.67;1.57;;;;;;;10.81;49.00;99371.69;5051278;28;20529;-75
2021/05/06 14:56:50;;;;;;;1.37;1.20;;;;;;;10.82;48.71;99365.88;5053753;28;20229;-75
2021/05/06 14:59:16;;;;;;;0.60;0.60;;;;;;;10.80;47.16;99368.16;5052278;28;20179;-75
2021/05/06 15:01:41;;;;;;;1.40;1.10;;;;;;;10.70;48.39;99363.97;5053798;28;20183;-75
2021/05/06 15:04:06;;;;;;;0.77;0.77;;;;;;;10.77;48.11;99360.66;5053569;28;20257;-74
2021/05/06 15:06:32;;;;;;;0.77;0.77;;;;;;;10.81;46.81;99366.22;5053671;28;20172;-74
2021/05/06 15:09:00;;;;;;;1.17;0.80;;;;;;;10.94;47.10;99360.44;5053600;28;20571;-75
2021/05/06 15:11:25;;;;;;;0.80;0.80;;;;;;;11.10;48.23;99357.03;5054016;28;20197;-75
2021/05/06 15:13:51;;;;;;;1.37;1.20;;;;;;;11.31;46.69;99352.25;5034375;28;20307;-75
2021/05/06 15:16:16;;;;;;;1.27;1.17;;;;;;;11.48;48.02;99353.94;5040897;28;20187;-74
2021/05/06 15:18:41;;;;;;;1.90;1.10;;;;;;;11.71;46.85;99351.50;5033493;28;20204;-74
2021/05/06 15:21:07;;;;;;;0.80;0.70;;;;;;;11.52;44.00;99355.66;5033788;28;20176;-74
2021/05/06 15:23:32;;;;;;;1.27;1.17;;;;;;;11.35;45.30;99355.91;5033352;28;20172;-74
2021/05/06 15:25:57;;;;;;;0.97;0.97;;;;;;;11.41;46.60;99351.78;5031280;28;20515;-75
2021/05/06 15:28:23;;;;;;;1.10;1.00;;;;;;;11.37;47.17;99347.34;5031861;28;20731;-74
2021/05/06 15:30:51;;;;;;;1.03;1.00;;;;;;;11.28;46.04;99341.97;5032904;28;20624;-74
2021/05/06 15:33:16;;;;;;;1.20;1.10;;;;;;;11.20;47.29;99332.78;5031694;28;20176;-74